Kingsland, AR (71652)

11:06 AM CDT on July 25, 2016 (GMT -0500)
Kingsland | | Change Station

Elev 269 ft 33.86 °N, 92.33 °W | Updated 28 seconds ago

Mostly Cloudy
Mostly Cloudy
97.5 °F
Feels Like 112 °F
N
0.0
Wind Variable Wind from WNW

Today
High -- | Low -- °F
--% Chance of Precip.
Yesterday
High -- | Low -- °F
Precip. -- in
Pressure 30.01 in
Visibility 10.0 miles
Clouds Mostly Cloudy 10000 ft
Heat Index 112 °F
Dew Point 76 °F
Humidity 51%
Rainfall 0.00 in
Snow Depth Not available.
6:16 AM 8:14 PM
Waning Gibbous, 64% visible
METAR KPBF 251553Z AUTO 14004KT 10SM BKN100 30/22 A3002 RMK AO2 SLP163 T03000222 TSNO
Pressure 30.01 in
Visibility 10.0 miles
Clouds Mostly Cloudy 10000 ft
Heat Index 112 °F
Dew Point 76 °F
Humidity 51%
Rainfall 0.00 in
Snow Depth Not available.
6:16 AM 8:14 PM
Waning Gibbous, 64% visible
METAR KPBF 251553Z AUTO 14004KT 10SM BKN100 30/22 A3002 RMK AO2 SLP163 T03000222 TSNO

10-Day Weather Forecast

Almanac

Astronomy

Jul. 25, 2016 Rise Set
Actual Time
Civil Twilight
Nautical Twilight
Astronomical Twilight
Moon
Length of Visible Light
Length of Day
Tomorrow will be .
, % of the Moon is Illuminated

Today's Extremes

State Highs State Lows

Community

WunderPhotos

Upload Photos

1,927,340 photos uploaded!

WunderBlog® & News

Nearby

Air Quality

  Air Quality AQ Index Pollutant
Not available.

Snow Depth

Station Depth Elevation

Earthquake Activity

City Distance Mag. Time & Date
Minimum magnitude displayed is 2.5.

Coastal Water Temperatures

Place Temperature

Stations

Nearby Weather Stations

Station Location Temp. Windchill Dew Point Humidity Wind Precip. Elev Updated Type
                   

Watches & Warnings

There are currently no watches in effect.